createdAt,value
2023-04-08T00:00:35.160Z,63449.89
2023-04-08T00:01:37.245Z,63435.53
2023-04-08T00:02:39.612Z,63419.89
2023-04-08T00:03:41.857Z,63439.49
2023-04-08T00:04:46.082Z,63443.32
2023-04-08T00:05:48.304Z,63442.34
2023-04-08T00:06:50.446Z,63443.32
2023-04-08T00:07:52.443Z,63446.84
2023-04-08T00:08:54.486Z,63454.82
2023-04-08T00:09:56.474Z,63456.04
2023-04-08T00:10:58.635Z,63468.52
2023-04-08T00:12:00.488Z,63463.70
2023-04-08T00:13:02.516Z,63467.42
2023-04-08T00:14:04.537Z,63466.98
2023-04-08T00:15:07.028Z,63471.79
2023-04-08T00:16:09.206Z,63465.23
2023-04-08T00:17:11.163Z,63470.94
2023-04-08T00:18:14.663Z,63471.25
2023-04-08T00:19:16.584Z,63456.14
2023-04-08T00:20:18.965Z,63463.93
2023-04-08T00:21:21.251Z,63471.38
2023-04-08T00:22:23.282Z,63479.60
2023-04-08T00:23:25.391Z,63460.41
2023-04-08T00:24:27.456Z,63470.71
2023-04-08T00:25:30.034Z,63479.47
2023-04-08T00:26:33.273Z,63471.79
2023-04-08T00:27:35.313Z,63464.67
2023-04-08T00:28:37.901Z,63458.89
2023-04-08T00:29:39.834Z,63469.17
2023-04-08T00:30:43.513Z,63453.85
2023-04-08T00:31:45.702Z,63465.47
2023-04-08T00:32:47.608Z,63464.13
2023-04-08T00:33:50.207Z,63459.32
2023-04-08T00:34:52.108Z,63465.47
2023-04-08T00:35:54.179Z,63466.31
2023-04-08T00:36:56.530Z,63458.22
2023-04-08T00:37:59.252Z,63453.18
2023-04-08T00:39:02.045Z,63463.59
2023-04-08T00:40:05.818Z,63458.65
2023-04-08T00:41:07.911Z,63459.32
2023-04-08T00:42:11.248Z,63459.32
2023-04-08T00:43:13.343Z,63469.06
2023-04-08T00:44:15.434Z,63470.81
2023-04-08T00:45:17.460Z,63475.88
2023-04-08T00:46:20.869Z,63470.16
2023-04-08T00:47:23.441Z,63459.99
2023-04-08T00:48:25.391Z,63462.48
2023-04-08T00:49:27.679Z,63449.89
2023-04-08T00:50:29.769Z,63461.58
2023-04-08T00:51:31.769Z,63443.75
2023-04-08T00:52:33.698Z,63434.12
2023-04-08T00:53:35.943Z,63425.80
2023-04-08T00:54:38.045Z,63441.13
2023-04-08T00:55:40.241Z,63442.45
2023-04-08T00:56:43.741Z,63449.77
2023-04-08T00:57:46.923Z,63447.69
2023-04-08T00:58:50.823Z,63450.67
2023-04-08T00:59:53.111Z,63448.36
2023-04-08T01:01:01.751Z,63460.84
2023-04-08T01:02:38.871Z,63460.84
2023-04-08T01:03:47.605Z,63445.50
2023-04-08T01:04:53.513Z,63457.98
2023-04-08T01:06:17.260Z,63464.26
2023-04-08T01:07:25.803Z,63458.65
2023-04-08T01:08:30.249Z,63454.93
2023-04-08T01:09:34.965Z,63465.23
2023-04-08T01:10:40.247Z,63452.08
2023-04-08T01:11:44.082Z,63469.50
2023-04-08T01:12:55.504Z,63444.40
2023-04-08T01:13:57.646Z,63448.79
2023-04-08T01:15:06.427Z,63462.79
2023-04-08T01:16:12.284Z,63464.13
2023-04-08T01:17:16.632Z,63461.51
2023-04-08T01:18:20.655Z,63468.52
2023-04-08T01:19:29.103Z,63479.04
2023-04-08T01:20:31.877Z,63478.37
2023-04-08T01:21:36.829Z,63462.36
2023-04-08T01:22:59.478Z,63444.53
2023-04-08T01:24:15.227Z,63469.50
2023-04-08T01:25:20.723Z,63461.95
2023-04-08T01:26:25.439Z,63459.20
2023-04-08T01:27:31.156Z,63460.61
2023-04-08T01:28:34.972Z,63450.00
2023-04-08T01:29:38.336Z,63457.98
2023-04-08T01:30:42.126Z,63457.12
2023-04-08T01:31:45.471Z,63472.22
2023-04-08T01:32:48.905Z,63468.09
2023-04-08T01:33:51.964Z,63470.16
2023-04-08T01:34:57.123Z,63476.72
2023-04-08T01:36:01.043Z,63463.02
2023-04-08T01:37:05.810Z,63457.01
2023-04-08T01:38:10.492Z,63455.37
2023-04-08T01:39:15.041Z,63451.64
2023-04-08T01:40:19.285Z,63456.47
2023-04-08T01:41:21.691Z,63430.40
2023-04-08T01:42:26.711Z,63449.03
2023-04-08T01:43:30.037Z,63468.52
2023-04-08T01:44:32.824Z,63449.46
2023-04-08T01:45:34.919Z,63445.50
2023-04-08T01:46:39.716Z,63442.88
2023-04-08T01:47:44.653Z,63433.15
2023-04-08T01:48:48.327Z,63446.04
2023-04-08T01:49:52.824Z,63441.13
2023-04-08T01:50:56.467Z,63444.96
2023-04-08T01:52:02.363Z,63443.75
2023-04-08T01:53:07.384Z,63437.41
2023-04-08T01:54:09.612Z,63446.71
2023-04-08T01:55:12.132Z,63438.82
2023-04-08T01:56:15.777Z,63435.64
2023-04-08T01:57:24.283Z,63441.67
2023-04-08T01:58:30.091Z,63438.39
2023-04-08T01:59:34.958Z,63436.44
2023-04-08T02:00:40.092Z,63448.79
2023-04-08T02:01:44.184Z,63456.04
2023-04-08T02:02:48.016Z,63446.30
2023-04-08T02:03:52.619Z,63452.75
2023-04-08T02:04:55.030Z,63444.40
2023-04-08T02:05:56.948Z,63434.12
2023-04-08T02:07:00.507Z,63422.92
2023-04-08T02:08:02.579Z,63425.80
2023-04-08T02:09:04.506Z,63446.37
2023-04-08T02:10:08.096Z,63440.03
2023-04-08T02:11:10.137Z,63445.74
2023-04-08T02:12:12.311Z,63456.47
2023-04-08T02:13:14.204Z,63458.09
2023-04-08T02:14:16.628Z,63460.84
2023-04-08T02:15:18.616Z,63467.42
2023-04-08T02:16:24.465Z,63465.77
2023-04-08T02:17:36.242Z,63454.26
2023-04-08T02:18:41.365Z,63429.32
2023-04-08T02:21:00.456Z,63463.59
2023-04-08T02:22:06.116Z,63454.50
2023-04-08T02:23:17.424Z,63445.50
2023-04-08T02:24:21.276Z,63436.87
2023-04-08T02:25:24.969Z,63445.07
2023-04-08T02:26:27.060Z,63453.18
2023-04-08T02:27:29.743Z,63446.04
2023-04-08T02:28:34.511Z,63447.82
2023-04-08T02:29:38.714Z,63452.51
2023-04-08T02:30:49.937Z,63442.21
2023-04-08T02:31:53.173Z,63449.89
2023-04-08T02:32:57.611Z,63442.34
2023-04-08T02:34:00.277Z,63439.05
2023-04-08T02:35:04.065Z,63439.49
2023-04-08T02:36:07.762Z,63446.04
2023-04-08T02:37:09.860Z,63450.43
2023-04-08T02:38:13.711Z,63453.29
2023-04-08T02:39:16.912Z,63459.74
2023-04-08T02:40:28.935Z,63446.84
2023-04-08T02:41:30.903Z,63437.41
2023-04-08T02:42:32.945Z,63435.90
2023-04-08T02:43:34.917Z,63441.13
2023-04-08T02:44:36.804Z,63439.49
2023-04-08T02:45:41.375Z,63440.27
2023-04-08T02:46:43.664Z,63439.59
2023-04-08T02:47:45.671Z,63446.61
2023-04-08T02:48:48.498Z,63453.05
2023-04-08T02:49:50.652Z,63427.55
2023-04-08T02:50:52.613Z,63415.50
2023-04-08T02:51:54.507Z,63430.84
2023-04-08T02:52:56.674Z,63422.51
2023-04-08T02:53:58.595Z,63427.12
2023-04-08T02:55:01.028Z,63438.93
2023-04-08T02:56:03.346Z,63423.05
2023-04-08T02:57:05.384Z,63425.47
2023-04-08T02:58:07.328Z,63429.09
2023-04-08T02:59:09.207Z,63427.12
2023-04-08T03:00:12.872Z,63433.99
2023-04-08T03:01:14.834Z,63410.57
2023-04-08T03:02:16.859Z,63415.93
2023-04-08T03:03:19.097Z,63413.75
2023-04-08T03:04:21.267Z,63421.17
2023-04-08T03:05:23.287Z,63433.02
2023-04-08T03:06:25.468Z,63435.10
2023-04-08T03:07:28.234Z,63440.57
2023-04-08T03:08:30.262Z,63427.44
2023-04-08T03:09:32.195Z,63432.11
2023-04-08T03:10:34.459Z,63411.54
2023-04-08T03:11:36.346Z,63407.41
2023-04-08T03:12:38.214Z,63415.93
2023-04-08T03:13:40.069Z,63406.07
2023-04-08T03:14:42.140Z,63407.59
2023-04-08T03:15:44.121Z,63418.12
2023-04-08T03:16:46.326Z,63431.27
2023-04-08T03:17:48.450Z,63433.99
2023-04-08T03:18:50.594Z,63442.65
2023-04-08T03:19:53.534Z,63446.04
2023-04-08T03:20:55.580Z,63446.04
2023-04-08T03:21:57.621Z,63422.51
2023-04-08T03:22:59.600Z,63434.56
2023-04-08T03:24:03.516Z,63433.89
2023-04-08T03:25:06.454Z,63445.93
2023-04-08T03:26:09.524Z,63427.55
2023-04-08T03:27:14.242Z,63439.36
2023-04-08T03:28:16.297Z,63432.35
2023-04-08T03:29:18.724Z,63439.05
2023-04-08T03:30:21.224Z,63450.98
2023-04-08T03:31:23.553Z,63458.09
2023-04-08T03:32:25.518Z,63463.02
2023-04-08T03:33:27.597Z,63461.38
2023-04-08T03:34:30.019Z,63471.68
2023-04-08T03:35:31.962Z,63465.23
2023-04-08T03:36:34.154Z,63465.90
2023-04-08T03:37:36.152Z,63462.18
2023-04-08T03:38:40.294Z,63456.47
2023-04-08T03:39:42.237Z,63453.96
2023-04-08T03:40:44.233Z,63450.98
2023-04-08T03:41:46.099Z,63438.93
2023-04-08T03:42:48.072Z,63452.51
2023-04-08T03:43:50.070Z,63453.85
2023-04-08T03:44:52.011Z,63458.65
2023-04-08T03:45:55.250Z,63459.87
2023-04-08T03:46:57.408Z,63467.29
2023-04-08T03:47:59.314Z,63458.65
2023-04-08T03:49:01.360Z,63450.56
2023-04-08T03:50:03.615Z,63454.93
2023-04-08T03:51:06.829Z,63457.55
2023-04-08T03:52:08.776Z,63449.33
2023-04-08T03:53:10.953Z,63450.98
2023-04-08T03:54:12.963Z,63457.12
2023-04-08T03:55:14.901Z,63461.82
2023-04-08T03:56:17.118Z,63465.23
2023-04-08T03:57:19.115Z,63461.27
2023-04-08T03:58:21.131Z,63452.21
2023-04-08T03:59:23.798Z,63450.43
2023-04-08T04:00:26.179Z,63452.51
2023-04-08T04:01:28.469Z,63451.41
2023-04-08T04:02:31.165Z,63445.50
2023-04-08T04:03:33.750Z,63431.50
2023-04-08T04:04:36.694Z,63440.57
2023-04-08T04:05:40.446Z,63441.91
2023-04-08T04:06:42.686Z,63435.23
2023-04-08T04:07:45.025Z,63438.08
2023-04-08T04:08:46.942Z,63442.21
2023-04-08T04:09:48.973Z,63438.93
2023-04-08T04:10:50.949Z,63425.80
2023-04-08T04:11:52.802Z,63436.31
2023-04-08T04:12:54.915Z,63423.59
2023-04-08T04:13:58.775Z,63438.93
2023-04-08T04:15:00.721Z,63419.46
2023-04-08T04:16:03.419Z,63426.34
2023-04-08T04:17:05.534Z,63423.18
2023-04-08T04:18:07.551Z,63435.64
2023-04-08T04:19:09.684Z,63443.62
2023-04-08T04:20:13.085Z,63439.49
2023-04-08T04:21:15.354Z,63446.30
2023-04-08T04:22:17.281Z,63437.84
2023-04-08T04:23:19.144Z,63450.98
2023-04-08T04:24:21.057Z,63454.82
2023-04-08T04:25:23.288Z,63466.31
2023-04-08T04:26:25.812Z,63465.90
2023-04-08T04:27:27.933Z,63457.55
2023-04-08T04:28:29.801Z,63449.89
2023-04-08T04:29:31.736Z,63466.87
2023-04-08T04:30:36.807Z,63473.43
2023-04-08T04:31:38.954Z,63461.64
2023-04-08T04:32:43.150Z,63473.99
2023-04-08T04:33:45.292Z,63468.39
2023-04-08T04:34:47.227Z,63458.22
2023-04-08T04:35:49.279Z,63458.22
2023-04-08T04:36:51.512Z,63453.85
2023-04-08T04:37:53.510Z,63458.65
2023-04-08T04:38:55.786Z,63469.30
2023-04-08T04:39:57.999Z,63470.81
2023-04-08T04:41:00.134Z,63485.38
2023-04-08T04:42:02.250Z,63488.97
2023-04-08T04:43:05.304Z,63466.98
2023-04-08T04:44:07.215Z,63460.97
2023-04-08T04:45:09.918Z,63477.70
2023-04-08T04:46:12.827Z,63467.96
2023-04-08T04:47:14.761Z,63482.63
2023-04-08T04:48:16.643Z,63476.72
2023-04-08T04:49:18.993Z,63483.43
2023-04-08T04:50:21.080Z,63494.38
2023-04-08T04:51:22.968Z,63494.27
2023-04-08T04:52:24.934Z,63495.91
2023-04-08T04:53:28.523Z,63504.12
2023-04-08T04:54:31.217Z,63517.95
2023-04-08T04:55:33.228Z,63503.58
2023-04-08T04:56:35.291Z,63525.07
2023-04-08T04:57:37.141Z,63517.82
2023-04-08T04:58:39.027Z,63505.35
2023-04-08T04:59:41.308Z,63528.23
2023-04-08T05:00:43.281Z,63540.85
2023-04-08T05:01:45.334Z,63537.56
2023-04-08T05:02:47.678Z,63537.56
2023-04-08T05:03:49.685Z,63510.29
2023-04-08T05:04:51.817Z,63503.81
2023-04-08T05:05:54.337Z,63522.21
2023-04-08T05:07:00.956Z,63514.79
2023-04-08T05:08:03.894Z,63543.71
2023-04-08T05:09:05.903Z,63561.14
2023-04-08T05:10:09.838Z,63569.37
2023-04-08T05:11:11.789Z,63555.77
2023-04-08T05:12:13.785Z,63549.08
2023-04-08T05:13:16.755Z,63569.91
2023-04-08T05:14:18.662Z,63574.85
2023-04-08T05:15:21.977Z,63561.14
2023-04-08T05:16:24.043Z,63587.32
2023-04-08T05:17:26.218Z,63600.18
2023-04-08T05:18:28.250Z,63612.81
2023-04-08T05:19:30.170Z,63583.18
2023-04-08T05:20:32.247Z,63587.45
2023-04-08T05:21:34.146Z,63593.16
2023-04-08T05:22:36.288Z,63616.54
2023-04-08T05:23:38.193Z,63620.63
2023-04-08T05:24:40.095Z,63636.30
2023-04-08T05:25:42.399Z,63618.50
2023-04-08T05:26:44.631Z,63613.06
2023-04-08T05:27:46.493Z,63627.09
2023-04-08T05:28:51.312Z,63620.50
2023-04-08T05:29:53.840Z,63632.34
2023-04-08T05:30:55.902Z,63616.67
2023-04-08T05:31:59.809Z,63639.82
2023-04-08T05:33:01.727Z,63654.39
2023-04-08T05:34:03.712Z,63665.49
2023-04-08T05:35:06.948Z,63629.40
2023-04-08T05:36:10.697Z,63611.29
2023-04-08T05:37:12.786Z,63629.95
2023-04-08T05:38:14.738Z,63640.91
2023-04-08T05:39:20.220Z,63646.95
2023-04-08T05:40:22.411Z,63642.87
2023-04-08T05:41:24.799Z,63662.75
2023-04-08T05:42:26.812Z,63660.44
2023-04-08T05:43:28.687Z,63653.54
2023-04-08T05:44:31.428Z,63678.00
2023-04-08T05:45:33.524Z,63685.48
2023-04-08T05:46:35.632Z,63708.96
2023-04-08T05:47:37.849Z,63723.67
2023-04-08T05:48:39.997Z,63733.56
2023-04-08T05:49:41.954Z,63745.76
2023-04-08T05:50:44.200Z,63736.29
2023-04-08T05:51:46.667Z,63747.29
2023-04-08T05:52:48.717Z,63755.53
2023-04-08T05:53:54.705Z,63767.61
2023-04-08T05:54:56.761Z,63762.23
2023-04-08T05:55:58.671Z,63756.19
2023-04-08T05:57:00.998Z,63759.49
2023-04-08T05:58:02.987Z,63762.23
2023-04-08T05:59:04.879Z,63769.38
2023-04-08T06:00:10.276Z,63768.70
2023-04-08T06:01:12.568Z,63774.89
2023-04-08T06:02:14.584Z,63793.89
2023-04-08T06:03:19.716Z,63790.25
2023-04-08T06:04:20.623Z,63797.41
2023-04-08T06:05:22.758Z,63797.41
2023-04-08T06:06:25.226Z,63804.55
2023-04-08T06:07:29.312Z,63805.09
2023-04-08T06:08:31.289Z,63825.42
2023-04-08T06:09:36.230Z,63825.42
2023-04-08T06:10:38.510Z,63829.16
2023-04-08T06:11:41.384Z,63801.25
2023-04-08T06:12:44.178Z,63810.04
2023-04-08T06:13:46.134Z,63810.48
2023-04-08T06:14:50.041Z,63812.23
2023-04-08T06:15:52.073Z,63832.34
2023-04-08T06:16:54.099Z,63814.44
2023-04-08T06:17:56.916Z,63826.29
2023-04-08T06:18:59.121Z,63820.48
2023-04-08T06:20:01.736Z,63802.78
2023-04-08T06:21:03.784Z,63804.99
2023-04-08T06:22:05.789Z,63803.88
2023-04-08T06:23:08.007Z,63833.99
2023-04-08T06:24:09.990Z,63813.34
2023-04-08T06:25:13.120Z,63803.44
2023-04-08T06:26:15.350Z,63823.65
2023-04-08T06:27:17.419Z,63792.46
2023-04-08T06:28:19.289Z,63815.53
2023-04-08T06:29:22.518Z,63823.23
2023-04-08T06:30:24.762Z,63795.64
2023-04-08T06:31:26.657Z,63790.25
2023-04-08T06:32:28.686Z,63815.53
2023-04-08T06:33:31.396Z,63818.95
2023-04-08T06:34:34.191Z,63772.01
2023-04-08T06:35:37.097Z,63772.68
2023-04-08T06:36:39.366Z,63784.22
2023-04-08T06:37:41.359Z,63792.34
2023-04-08T06:38:43.268Z,63803.88
2023-04-08T06:39:45.279Z,63824.88
2023-04-08T06:40:47.510Z,63826.75
2023-04-08T06:41:49.550Z,63829.39
2023-04-08T06:42:52.686Z,63798.39
2023-04-08T06:43:55.010Z,63797.95
2023-04-08T06:44:57.164Z,63835.86
2023-04-08T06:45:59.430Z,63850.59
2023-04-08T06:47:01.723Z,63854.55
2023-04-08T06:48:05.019Z,63851.37
2023-04-08T06:49:06.981Z,63857.30
2023-04-08T06:50:09.913Z,63862.57
2023-04-08T06:51:11.885Z,63873.79
2023-04-08T06:52:15.708Z,63873.79
2023-04-08T06:53:17.594Z,63875.98
2023-04-08T06:54:19.454Z,63875.34
2023-04-08T06:55:21.308Z,63890.83
2023-04-08T06:56:23.671Z,63874.89
2023-04-08T06:57:25.741Z,63869.28
2023-04-08T06:58:27.716Z,63882.04
2023-04-08T06:59:29.804Z,63899.74
2023-04-08T07:00:31.970Z,63910.07
2023-04-08T07:01:33.936Z,63925.81
2023-04-08T07:02:36.110Z,63913.37
2023-04-08T07:03:38.518Z,63919.55
2023-04-08T07:04:40.545Z,63929.89
2023-04-08T07:05:42.433Z,63954.54
2023-04-08T07:06:44.421Z,63972.26
2023-04-08T07:07:46.775Z,63966.41
2023-04-08T07:08:48.972Z,63953.55
2023-04-08T07:09:51.566Z,63978.74
2023-04-08T07:10:53.737Z,63975.44
2023-04-08T07:11:55.609Z,63974.45
2023-04-08T07:12:57.671Z,63952.57
2023-04-08T07:13:59.541Z,63961.24
2023-04-08T07:15:01.454Z,63964.55
2023-04-08T07:16:04.347Z,63983.25
2023-04-08T07:17:06.268Z,63957.62
2023-04-08T07:18:08.240Z,63973.89
2023-04-08T07:19:10.329Z,63968.95
2023-04-08T07:20:13.197Z,63980.94
2023-04-08T07:21:15.368Z,63984.46
2023-04-08T07:22:17.546Z,63999.77
2023-04-08T07:23:20.340Z,64002.51
2023-04-08T07:24:23.525Z,63991.07
2023-04-08T07:25:25.622Z,64003.62
2023-04-08T07:26:27.805Z,64004.38
2023-04-08T07:27:29.737Z,64015.06
2023-04-08T07:28:31.608Z,64007.46
2023-04-08T07:29:33.476Z,64030.57
2023-04-08T07:30:35.604Z,64024.64
2023-04-08T07:31:38.867Z,63974.55
2023-04-08T07:32:40.768Z,63992.50
2023-04-08T07:33:44.908Z,63983.80
2023-04-08T07:34:46.784Z,64008.33
2023-04-08T07:35:48.697Z,64006.92
2023-04-08T07:36:50.828Z,64025.07
2023-04-08T07:37:52.731Z,64027.17
2023-04-08T07:38:54.863Z,64021.77
2023-04-08T07:39:56.770Z,64034.20
2023-04-08T07:40:58.949Z,64040.39
2023-04-08T07:42:00.819Z,64049.85
2023-04-08T07:43:02.709Z,64047.21
2023-04-08T07:44:04.994Z,64047.75
2023-04-08T07:45:08.096Z,64045.98
2023-04-08T07:46:10.687Z,64051.74
2023-04-08T07:47:13.106Z,64055.59
2023-04-08T07:48:15.072Z,64032.79
2023-04-08T07:49:17.160Z,64062.41
2023-04-08T07:50:19.164Z,64076.08
2023-04-08T07:51:21.144Z,64046.77
2023-04-08T07:52:23.556Z,64041.47
2023-04-08T07:53:25.432Z,64050.28
2023-04-08T07:54:27.501Z,64050.94
2023-04-08T07:56:44.827Z,64043.24
2023-04-08T07:57:47.165Z,64051.93
2023-04-08T07:58:51.200Z,64049.85
2023-04-08T07:59:53.003Z,64053.94
2023-04-08T08:00:55.268Z,64084.65
2023-04-08T08:01:57.314Z,64091.71
2023-04-08T08:02:59.435Z,64093.81
2023-04-08T08:04:01.937Z,64111.64
2023-04-08T08:05:05.172Z,64101.18
2023-04-08T08:06:07.348Z,64080.59
2023-04-08T08:07:09.210Z,64078.61
2023-04-08T08:08:11.146Z,64091.71
2023-04-08T08:09:13.242Z,64103.17
2023-04-08T08:10:15.806Z,64102.18
2023-04-08T08:11:18.458Z,64113.09
2023-04-08T08:12:20.364Z,64103.29
2023-04-08T08:13:22.238Z,64080.47
2023-04-08T08:14:24.539Z,64079.15
2023-04-08T08:15:26.749Z,64080.14
2023-04-08T08:16:32.383Z,64106.02
2023-04-08T08:17:34.692Z,64119.79
2023-04-08T08:18:37.425Z,64126.41
2023-04-08T08:19:39.316Z,64124.75
2023-04-08T08:20:41.568Z,64111.55
2023-04-08T08:21:43.544Z,64108.01
2023-04-08T08:22:54.570Z,64122.67
2023-04-08T08:23:52.075Z,64130.26
2023-04-08T08:24:58.903Z,64140.18
2023-04-08T08:26:06.348Z,64137.32
2023-04-08T08:27:13.343Z,64152.96
2023-04-08T08:28:15.288Z,64122.67
2023-04-08T08:29:17.170Z,64153.29
2023-04-08T08:30:19.349Z,64174.89
2023-04-08T08:31:21.370Z,64177.65
2023-04-08T08:32:23.296Z,64200.81
2023-04-08T08:33:25.752Z,64188.80
2023-04-08T08:34:29.968Z,64173.89
2023-04-08T08:35:32.164Z,64193.22
2023-04-08T08:36:35.703Z,64219.55
2023-04-08T08:37:37.621Z,64219.67
2023-04-08T08:38:40.051Z,64193.32
2023-04-08T08:39:41.999Z,64213.17
2023-04-08T08:40:45.042Z,64213.17
2023-04-08T08:41:47.035Z,64200.48
2023-04-08T08:42:52.263Z,64201.92
2023-04-08T08:43:55.657Z,64197.52
2023-04-08T08:44:59.607Z,64169.38
2023-04-08T08:46:01.586Z,64103.83
2023-04-08T08:47:04.737Z,64123.66
2023-04-08T08:48:09.972Z,64130.92
2023-04-08T08:49:12.316Z,64158.46
2023-04-08T08:50:14.602Z,64175.45
2023-04-08T08:51:18.989Z,64141.29
2023-04-08T08:52:21.206Z,64179.85
2023-04-08T08:53:35.142Z,64148.99
2023-04-08T08:54:35.451Z,64149.56
2023-04-08T08:56:42.020Z,64164.54
2023-04-08T08:57:43.978Z,64187.03
2023-04-08T08:58:46.001Z,64142.61
2023-04-08T08:59:48.252Z,64148.56
2023-04-08T09:00:50.431Z,64171.58
2023-04-08T09:01:52.367Z,64200.81
2023-04-08T09:02:54.621Z,64222.32
2023-04-08T09:04:09.774Z,64229.03
2023-04-08T09:05:12.115Z,64253.74
2023-04-08T09:06:17.626Z,64273.61
2023-04-08T09:07:23.336Z,64241.16
2023-04-08T09:09:50.408Z,64247.23
2023-04-08T09:10:56.323Z,64210.74
2023-04-08T09:12:05.058Z,64219.79
2023-04-08T09:13:07.121Z,64269.30
2023-04-08T09:14:23.179Z,64278.00
2023-04-08T09:15:25.275Z,64304.72
2023-04-08T09:16:27.656Z,64294.11
2023-04-08T09:17:39.219Z,64294.11
2023-04-08T09:18:41.589Z,64272.95
2023-04-08T09:20:08.978Z,64276.01
2023-04-08T09:21:13.301Z,64286.40
2023-04-08T09:22:15.380Z,64289.71
2023-04-08T09:23:19.113Z,64278.00
2023-04-08T09:24:29.970Z,64281.52
2023-04-08T09:25:33.293Z,64291.46
2023-04-08T09:26:36.541Z,64285.74
2023-04-08T09:27:38.657Z,64291.91
2023-04-08T09:28:42.378Z,64310.12
2023-04-08T09:29:44.306Z,64283.09
2023-04-08T09:30:46.823Z,64218.47
2023-04-08T09:31:55.994Z,64258.71
2023-04-08T09:33:00.575Z,64274.70
2023-04-08T09:34:11.532Z,64246.04
2023-04-08T09:35:13.475Z,64260.48
2023-04-08T09:36:17.131Z,64278.57
2023-04-08T09:38:31.592Z,64281.98
2023-04-08T09:39:33.718Z,64288.71
2023-04-08T09:40:37.048Z,64308.92
2023-04-08T09:41:40.177Z,64303.40
2023-04-08T09:42:47.763Z,64287.05
2023-04-08T09:43:53.929Z,64280.98
2023-04-08T09:44:57.468Z,64291.25
2023-04-08T09:46:02.013Z,64308.92
2023-04-08T09:47:11.558Z,64285.17
2023-04-08T09:48:20.273Z,64306.83
2023-04-08T09:49:31.150Z,64293.02
2023-04-08T09:50:37.059Z,64297.44
2023-04-08T09:52:04.186Z,64290.80
2023-04-08T09:53:10.354Z,64291.14
2023-04-08T09:54:16.258Z,64283.52
2023-04-08T09:55:21.763Z,64274.81
2023-04-08T09:56:28.187Z,64255.61
2023-04-08T09:57:56.715Z,64268.30
2023-04-08T09:59:01.498Z,64256.51
2023-04-08T10:01:22.549Z,64253.86
2023-04-08T10:02:28.500Z,64230.80
2023-04-08T10:03:40.827Z,64254.40
2023-04-08T10:04:45.229Z,64258.26
2023-04-08T10:05:49.465Z,64244.04
2023-04-08T10:06:55.582Z,64248.23
2023-04-08T10:07:58.462Z,64262.02
2023-04-08T10:09:02.562Z,64225.73
2023-04-08T10:10:06.499Z,64257.17
2023-04-08T10:11:09.499Z,64276.92
2023-04-08T10:12:11.668Z,64274.70
2023-04-08T10:13:14.277Z,64279.23
2023-04-08T10:14:16.246Z,64257.26
2023-04-08T10:15:33.148Z,64247.35
2023-04-08T10:16:35.188Z,64252.65
2023-04-08T10:17:37.239Z,64279.11
2023-04-08T10:18:39.293Z,64286.94
2023-04-08T10:19:41.544Z,64305.61
2023-04-08T10:20:46.393Z,64278.78
2023-04-08T10:21:48.301Z,64293.68
2023-04-08T10:22:50.317Z,64277.67
2023-04-08T10:23:54.925Z,64291.91
2023-04-08T10:25:19.268Z,64278.66
2023-04-08T10:26:41.317Z,64280.98
2023-04-08T10:27:44.632Z,64279.23
2023-04-08T10:28:46.615Z,64291.25
2023-04-08T10:29:48.629Z,64294.56
2023-04-08T10:32:03.390Z,64282.18
2023-04-08T10:33:14.949Z,64289.59
2023-04-08T10:34:22.325Z,64289.05
2023-04-08T10:35:39.564Z,64295.24
2023-04-08T10:36:42.239Z,64288.71
2023-04-08T10:37:44.591Z,64287.94
2023-04-08T10:38:48.363Z,64286.40
2023-04-08T10:39:50.401Z,64278.00
2023-04-08T10:40:54.146Z,64264.78
2023-04-08T10:41:56.180Z,64283.52
2023-04-08T10:42:59.174Z,64290.14
2023-04-08T10:44:04.302Z,64290.91
2023-04-08T10:45:08.512Z,64280.77
2023-04-08T10:46:11.074Z,64283.52
2023-04-08T10:47:13.244Z,64272.49
2023-04-08T10:48:21.273Z,64272.49
2023-04-08T10:49:26.951Z,64274.26
2023-04-08T10:50:30.957Z,64268.73
2023-04-08T10:51:33.871Z,64268.73
2023-04-08T10:52:38.147Z,64250.64
2023-04-08T10:53:40.237Z,64258.37
2023-04-08T10:54:45.846Z,64260.57
2023-04-08T10:55:48.710Z,64259.82
2023-04-08T10:56:52.316Z,64241.28
2023-04-08T10:57:55.844Z,64260.36
2023-04-08T10:58:58.314Z,64252.86
2023-04-08T11:00:00.378Z,64267.74
2023-04-08T11:01:06.038Z,64271.95
2023-04-08T11:02:13.771Z,64283.52
2023-04-08T11:03:16.244Z,64293.02
2023-04-08T11:04:18.764Z,64285.08
2023-04-08T11:05:22.210Z,64281.32
2023-04-08T11:06:24.223Z,64286.40
2023-04-08T11:07:26.125Z,64286.83
2023-04-08T11:08:32.727Z,64285.83
2023-04-08T11:09:34.754Z,64289.05
2023-04-08T11:10:39.341Z,64288.82
2023-04-08T11:11:43.561Z,64296.76
2023-04-08T11:12:45.711Z,64283.09
2023-04-08T11:13:53.266Z,64293.56
2023-04-08T11:14:52.247Z,64308.92
2023-04-08T11:15:56.611Z,64292.02
2023-04-08T11:16:58.674Z,64288.71
2023-04-08T11:18:01.688Z,64305.06
2023-04-08T11:19:05.092Z,64316.20
2023-04-08T11:20:09.228Z,64303.52
2023-04-08T11:21:14.256Z,64306.83
2023-04-08T11:22:16.691Z,64318.31
2023-04-08T11:23:19.285Z,64334.75
2023-04-08T11:24:22.163Z,64329.45
2023-04-08T11:25:25.474Z,64329.45
2023-04-08T11:26:32.152Z,64328.34
2023-04-08T11:27:34.862Z,64329.88
2023-04-08T11:28:38.518Z,64333.96
2023-04-08T11:29:41.023Z,64328.79
2023-04-08T11:30:45.616Z,64331.11
2023-04-08T11:31:47.649Z,64329.54
2023-04-08T11:32:50.134Z,64332.19
2023-04-08T11:33:54.688Z,64344.89
2023-04-08T11:35:03.870Z,64336.28
2023-04-08T11:36:06.436Z,64336.28
2023-04-08T11:37:08.477Z,64332.76
2023-04-08T11:38:13.010Z,64350.30
2023-04-08T11:39:15.181Z,64350.21
2023-04-08T11:40:20.208Z,64343.33
2023-04-08T11:41:22.770Z,64353.72
2023-04-08T11:42:30.533Z,64353.72
2023-04-08T11:43:45.559Z,64351.95
2023-04-08T11:44:49.129Z,64369.72
2023-04-08T11:45:52.030Z,64353.82
2023-04-08T11:46:58.698Z,64371.92
2023-04-08T11:48:16.739Z,64371.92
2023-04-08T11:49:21.799Z,64362.44
2023-04-08T11:50:25.776Z,64355.38
2023-04-08T11:51:28.460Z,64349.41
2023-04-08T11:52:47.643Z,64354.38
2023-04-08T11:53:52.705Z,64365.30
2023-04-08T11:54:57.883Z,64370.72
2023-04-08T11:56:20.796Z,64379.10
2023-04-08T11:57:40.398Z,64379.75
2023-04-08T11:58:46.461Z,64390.70
2023-04-08T11:59:50.151Z,64398.52
2023-04-08T12:00:55.588Z,64399.09
2023-04-08T12:01:57.914Z,64412.14
2023-04-08T12:03:01.129Z,64424.40
2023-04-08T12:04:03.401Z,64427.71
2023-04-08T12:05:09.938Z,64430.46
2023-04-08T12:06:14.568Z,64442.18
2023-04-08T12:07:17.015Z,64453.01
2023-04-08T12:08:21.541Z,64442.27
2023-04-08T12:09:23.969Z,64454.76
2023-04-08T12:10:27.605Z,64453.67
2023-04-08T12:11:30.825Z,64459.19
2023-04-08T12:12:32.935Z,64455.33
2023-04-08T12:13:35.153Z,64434.34
2023-04-08T12:14:37.253Z,64444.84
2023-04-08T12:17:07.390Z,64440.52
2023-04-08T12:18:10.194Z,64444.27
2023-04-08T12:19:14.477Z,64432.03
2023-04-08T12:20:20.495Z,64429.46
2023-04-08T12:21:24.966Z,64445.84
2023-04-08T12:22:32.330Z,64443.27
2023-04-08T12:23:37.658Z,64447.24
2023-04-08T12:24:41.353Z,64481.38
2023-04-08T12:25:43.389Z,64477.52
2023-04-08T12:26:45.903Z,64495.10
2023-04-08T12:27:53.775Z,64492.79
2023-04-08T12:28:56.435Z,64486.70
2023-04-08T12:29:59.492Z,64473.54
2023-04-08T12:31:09.189Z,64486.26
2023-04-08T12:32:15.870Z,64465.25
2023-04-08T12:33:20.235Z,64479.72
2023-04-08T12:34:28.699Z,64494.53
2023-04-08T12:35:34.775Z,64493.09
2023-04-08T12:36:52.492Z,64451.01
2023-04-08T12:37:57.617Z,64450.24